UAL1158 KLAX-PHNL
Flight info
| Callsign | UAL1158 |
|---|---|
| Flight time | 5h 24m |
| Altitude | 36000 |
| Route | SUMMR2 DINTY DCT DUETS DCT 3335N12855W DCT DADIE R576 DUSAC/N0487F380 R576 DENNS MAGGI3 |
| Aircraft | B77W/H-SDE1E2E3FGHIJ2J3J4J5M1RWXY/LB1D1 |
Departure
| Time | 2026-04-23 16:04 |
|---|---|
| Airport | Los Angeles International Airport (KLAX) |
Arrival
| Time | 2026-04-23 21:28 |
|---|---|
| Airport | Daniel K. Inouye International Airport (PHNL) |
| Time | Latitude | Longitude | Altitude | Speed | Heading |
|---|---|---|---|---|---|
| 2026-04-23 15:25 | 33.94023 | -118.39996 | 130 ft | 0 kts | 28° |
| 2026-04-23 15:50 | 33.94019 | -118.39998 | 126 ft | 2 kts | 28° |
| 2026-04-23 15:50 | 33.94004 | -118.40008 | 125 ft | 2 kts | 28° |
| 2026-04-23 15:50 | 33.93990 | -118.40017 | 125 ft | 2 kts | 29° |
| 2026-04-23 15:50 | 33.93975 | -118.40027 | 125 ft | 2 kts | 32° |
| 2026-04-23 15:51 | 33.93962 | -118.40039 | 133 ft | 2 kts | 45° |
| 2026-04-23 15:51 | 33.93954 | -118.40054 | 125 ft | 1 kts | 86° |
| 2026-04-23 15:51 | 33.93954 | -118.40055 | 125 ft | 0 kts | 84° |
| 2026-04-23 15:55 | 33.93955 | -118.40045 | 126 ft | 8 kts | 84° |
| 2026-04-23 15:55 | 33.93962 | -118.39957 | 127 ft | 10 kts | 84° |
| 2026-04-23 15:55 | 33.93970 | -118.39875 | 128 ft | 10 kts | 84° |
| 2026-04-23 15:56 | 33.93938 | -118.39805 | 127 ft | 10 kts | 130° |
| 2026-04-23 15:56 | 33.93913 | -118.39728 | 127 ft | 10 kts | 93° |
| 2026-04-23 15:56 | 33.93916 | -118.39644 | 130 ft | 10 kts | 85° |
| 2026-04-23 15:56 | 33.93923 | -118.39561 | 130 ft | 10 kts | 85° |
| 2026-04-23 15:57 | 33.93930 | -118.39478 | 129 ft | 10 kts | 83° |
| 2026-04-23 15:57 | 33.93939 | -118.39395 | 126 ft | 10 kts | 82° |
| 2026-04-23 15:57 | 33.93948 | -118.39312 | 128 ft | 10 kts | 82° |
| 2026-04-23 15:57 | 33.93958 | -118.39229 | 127 ft | 10 kts | 82° |
| 2026-04-23 15:58 | 33.93967 | -118.39146 | 126 ft | 10 kts | 82° |
| 2026-04-23 15:58 | 33.93977 | -118.39063 | 130 ft | 10 kts | 82° |
| 2026-04-23 15:58 | 33.93986 | -118.38980 | 128 ft | 10 kts | 82° |
| 2026-04-23 15:58 | 33.93995 | -118.38896 | 130 ft | 10 kts | 83° |
| 2026-04-23 15:59 | 33.94004 | -118.38813 | 128 ft | 10 kts | 83° |
| 2026-04-23 15:59 | 33.94013 | -118.38730 | 126 ft | 10 kts | 83° |
| 2026-04-23 15:59 | 33.94021 | -118.38648 | 128 ft | 10 kts | 85° |
| 2026-04-23 15:59 | 33.94026 | -118.38564 | 126 ft | 10 kts | 86° |
| 2026-04-23 16:00 | 33.94030 | -118.38480 | 130 ft | 10 kts | 86° |
| 2026-04-23 16:00 | 33.94040 | -118.38397 | 126 ft | 10 kts | 80° |
| 2026-04-23 16:00 | 33.94051 | -118.38315 | 127 ft | 10 kts | 82° |
| 2026-04-23 16:00 | 33.94060 | -118.38231 | 130 ft | 10 kts | 83° |
| 2026-04-23 16:01 | 33.94069 | -118.38148 | 130 ft | 10 kts | 83° |
| 2026-04-23 16:01 | 33.94074 | -118.38097 | 130 ft | 0 kts | 83° |
| 2026-04-23 16:01 | 33.94074 | -118.38096 | 130 ft | 0 kts | 83° |
| 2026-04-23 16:01 | 33.94074 | -118.38065 | 130 ft | 5 kts | 94° |
| 2026-04-23 16:02 | 33.94063 | -118.38027 | 127 ft | 5 kts | 127° |
| 2026-04-23 16:02 | 33.94032 | -118.38010 | 126 ft | 5 kts | 166° |
| 2026-04-23 16:02 | 33.93999 | -118.38017 | 127 ft | 5 kts | 217° |
| 2026-04-23 16:02 | 33.93985 | -118.38056 | 126 ft | 5 kts | 255° |
| 2026-04-23 16:03 | 33.93983 | -118.38066 | 126 ft | 7 kts | 259° |
| 2026-04-23 16:03 | 33.93929 | -118.38576 | 129 ft | 111 kts | 263° |
| 2026-04-23 16:03 | 33.93800 | -118.39815 | 128 ft | 182 kts | 262° |
| 2026-04-23 16:03 | 33.93619 | -118.41468 | 519 ft | 200 kts | 263° |
| 2026-04-23 16:04 | 33.93447 | -118.43063 | 1558 ft | 189 kts | 262° |
| 2026-04-23 16:04 | 33.93258 | -118.44662 | 2449 ft | 195 kts | 264° |
| 2026-04-23 16:04 | 33.93111 | -118.46296 | 3134 ft | 200 kts | 266° |
| 2026-04-23 16:04 | 33.92970 | -118.48022 | 3793 ft | 207 kts | 265° |
| 2026-04-23 16:05 | 33.92851 | -118.49155 | 4265 ft | 207 kts | 265° |
| 2026-04-23 16:05 | 33.92626 | -118.51449 | 5094 ft | 214 kts | 268° |
| 2026-04-23 16:05 | 33.92489 | -118.53340 | 5368 ft | 242 kts | 266° |
| 2026-04-23 16:05 | 33.92294 | -118.55474 | 5712 ft | 267 kts | 265° |
| 2026-04-23 16:06 | 33.92078 | -118.57731 | 6541 ft | 274 kts | 265° |
| 2026-04-23 16:06 | 33.91859 | -118.60020 | 7496 ft | 274 kts | 265° |
| 2026-04-23 16:06 | 33.91641 | -118.62288 | 8559 ft | 271 kts | 265° |
| 2026-04-23 16:06 | 33.91437 | -118.64420 | 9557 ft | 270 kts | 265° |
| 2026-04-23 16:07 | 33.91224 | -118.66670 | 10469 ft | 273 kts | 265° |
| 2026-04-23 16:07 | 33.91004 | -118.69013 | 10901 ft | 294 kts | 265° |
| 2026-04-23 16:07 | 33.90766 | -118.71577 | 11123 ft | 322 kts | 265° |
| 2026-04-23 16:07 | 33.90596 | -118.73404 | 11262 ft | 340 kts | 265° |
| 2026-04-23 16:08 | 33.90324 | -118.76288 | 11897 ft | 351 kts | 265° |
| 2026-04-23 16:08 | 33.90045 | -118.79238 | 12773 ft | 356 kts | 265° |
| 2026-04-23 16:08 | 33.89762 | -118.82210 | 13792 ft | 358 kts | 265° |
| 2026-04-23 16:08 | 33.89477 | -118.85191 | 14744 ft | 359 kts | 264° |
| 2026-04-23 16:09 | 33.89191 | -118.88191 | 15617 ft | 363 kts | 264° |
| 2026-04-23 16:09 | 33.88902 | -118.91214 | 16461 ft | 366 kts | 264° |
| 2026-04-23 16:09 | 33.88609 | -118.94279 | 17326 ft | 370 kts | 264° |
| 2026-04-23 16:09 | 33.88313 | -118.97374 | 18165 ft | 374 kts | 264° |
| 2026-04-23 16:10 | 33.88012 | -119.00506 | 18914 ft | 378 kts | 264° |
| 2026-04-23 16:10 | 33.87708 | -119.03662 | 19630 ft | 381 kts | 264° |
| 2026-04-23 16:10 | 33.87401 | -119.06847 | 20321 ft | 386 kts | 264° |
| 2026-04-23 16:10 | 33.87088 | -119.10074 | 20985 ft | 390 kts | 264° |
| 2026-04-23 16:11 | 33.86772 | -119.13335 | 21661 ft | 394 kts | 263° |
| 2026-04-23 16:11 | 33.86451 | -119.16628 | 22335 ft | 398 kts | 263° |
| 2026-04-23 16:11 | 33.86132 | -119.19903 | 22975 ft | 402 kts | 263° |
| 2026-04-23 16:11 | 33.85802 | -119.23275 | 23609 ft | 407 kts | 263° |
| 2026-04-23 16:12 | 33.85468 | -119.26671 | 24144 ft | 410 kts | 263° |
| 2026-04-23 16:12 | 33.85133 | -119.30083 | 24728 ft | 412 kts | 263° |
| 2026-04-23 16:12 | 33.84793 | -119.33521 | 25325 ft | 414 kts | 263° |
| 2026-04-23 16:12 | 33.84452 | -119.36971 | 25865 ft | 417 kts | 263° |
| 2026-04-23 16:13 | 33.84107 | -119.40442 | 26378 ft | 420 kts | 263° |
| 2026-04-23 16:13 | 33.83406 | -119.47476 | 27359 ft | 426 kts | 263° |
| 2026-04-23 16:13 | 33.83051 | -119.51020 | 27833 ft | 429 kts | 263° |
| 2026-04-23 16:14 | 33.82696 | -119.54546 | 28266 ft | 432 kts | 262° |
| 2026-04-23 16:14 | 33.82330 | -119.58186 | 28731 ft | 435 kts | 262° |
| 2026-04-23 16:14 | 33.81969 | -119.61760 | 29134 ft | 437 kts | 262° |
| 2026-04-23 16:14 | 33.81599 | -119.65404 | 29507 ft | 441 kts | 262° |
| 2026-04-23 16:15 | 33.81225 | -119.69091 | 29860 ft | 444 kts | 262° |
| 2026-04-23 16:15 | 33.80848 | -119.72781 | 30190 ft | 446 kts | 262° |
| 2026-04-23 16:15 | 33.80470 | -119.76487 | 30478 ft | 448 kts | 262° |
| 2026-04-23 16:15 | 33.80088 | -119.80210 | 30862 ft | 447 kts | 262° |
| 2026-04-23 16:16 | 33.79707 | -119.83916 | 31307 ft | 445 kts | 262° |
| 2026-04-23 16:16 | 33.79327 | -119.87606 | 31732 ft | 444 kts | 262° |
| 2026-04-23 16:16 | 33.78946 | -119.91285 | 32127 ft | 443 kts | 262° |
| 2026-04-23 16:16 | 33.78565 | -119.94960 | 32496 ft | 443 kts | 263° |
| 2026-04-23 16:17 | 33.78182 | -119.98631 | 32844 ft | 442 kts | 263° |
| 2026-04-23 16:17 | 33.77804 | -120.02252 | 33224 ft | 441 kts | 263° |
| 2026-04-23 16:17 | 33.77422 | -120.05901 | 33631 ft | 439 kts | 263° |
| 2026-04-23 16:17 | 33.77040 | -120.09542 | 34000 ft | 439 kts | 263° |
| 2026-04-23 16:18 | 33.76658 | -120.13171 | 34306 ft | 438 kts | 263° |
| 2026-04-23 16:18 | 33.76274 | -120.16801 | 34639 ft | 436 kts | 263° |
| 2026-04-23 16:18 | 33.75893 | -120.20404 | 35016 ft | 433 kts | 263° |
| 2026-04-23 16:18 | 33.75512 | -120.23990 | 35366 ft | 431 kts | 263° |
| 2026-04-23 16:19 | 33.75132 | -120.27556 | 35672 ft | 430 kts | 263° |
| 2026-04-23 16:19 | 33.74752 | -120.31118 | 35965 ft | 428 kts | 263° |
| 2026-04-23 16:19 | 33.73984 | -120.38276 | 36088 ft | 433 kts | 263° |
| 2026-04-23 16:20 | 33.73215 | -120.45410 | 36105 ft | 428 kts | 263° |
| 2026-04-23 16:20 | 33.72452 | -120.52441 | 36108 ft | 426 kts | 263° |
| 2026-04-23 16:21 | 33.71685 | -120.59479 | 36114 ft | 425 kts | 263° |
| 2026-04-23 16:21 | 33.70912 | -120.66535 | 36121 ft | 425 kts | 263° |
| 2026-04-23 16:22 | 33.70135 | -120.73590 | 36127 ft | 426 kts | 263° |
| 2026-04-23 16:22 | 33.69352 | -120.80655 | 36125 ft | 428 kts | 263° |
| 2026-04-23 16:23 | 33.68563 | -120.87736 | 36135 ft | 428 kts | 263° |
| 2026-04-23 16:23 | 33.67768 | -120.94838 | 36131 ft | 429 kts | 263° |
| 2026-04-23 16:24 | 33.66972 | -121.01910 | 36127 ft | 423 kts | 262° |
| 2026-04-23 16:24 | 33.66191 | -121.08819 | 36138 ft | 420 kts | 262° |
| 2026-04-23 16:25 | 33.65401 | -121.15764 | 36142 ft | 420 kts | 262° |
| 2026-04-23 16:25 | 33.64606 | -121.22721 | 36148 ft | 421 kts | 262° |
| 2026-04-23 16:26 | 33.63806 | -121.29684 | 36150 ft | 422 kts | 262° |
| 2026-04-23 16:26 | 33.62998 | -121.36679 | 36146 ft | 423 kts | 262° |
| 2026-04-23 16:27 | 33.62185 | -121.43683 | 36155 ft | 424 kts | 262° |
| 2026-04-23 16:27 | 33.61369 | -121.50687 | 36153 ft | 425 kts | 262° |
| 2026-04-23 16:28 | 33.60546 | -121.57704 | 36160 ft | 425 kts | 262° |
| 2026-04-23 16:28 | 33.59719 | -121.64725 | 36157 ft | 424 kts | 262° |
| 2026-04-23 16:29 | 33.58895 | -121.71681 | 36158 ft | 424 kts | 262° |
| 2026-04-23 16:29 | 33.58062 | -121.78685 | 36165 ft | 424 kts | 262° |
| 2026-04-23 16:30 | 33.57227 | -121.85673 | 36166 ft | 423 kts | 262° |
| 2026-04-23 16:30 | 33.56388 | -121.92654 | 36165 ft | 423 kts | 262° |
| 2026-04-23 16:31 | 33.55547 | -121.99620 | 36175 ft | 422 kts | 262° |
| 2026-04-23 16:31 | 33.54702 | -122.06585 | 36169 ft | 422 kts | 262° |
| 2026-04-23 16:32 | 33.53854 | -122.13548 | 36178 ft | 422 kts | 262° |
| 2026-04-23 16:32 | 33.53003 | -122.20492 | 36176 ft | 421 kts | 262° |
| 2026-04-23 16:33 | 33.52149 | -122.27434 | 36181 ft | 421 kts | 262° |
| 2026-04-23 16:33 | 33.51291 | -122.34376 | 36178 ft | 420 kts | 262° |
| 2026-04-23 16:34 | 33.50431 | -122.41299 | 36185 ft | 420 kts | 262° |
| 2026-04-23 16:34 | 33.49569 | -122.48215 | 36186 ft | 420 kts | 262° |
| 2026-04-23 16:35 | 33.48703 | -122.55127 | 36189 ft | 419 kts | 262° |
| 2026-04-23 16:35 | 33.47592 | -122.61974 | 36193 ft | 419 kts | 257° |
| 2026-04-23 16:36 | 33.46165 | -122.68699 | 36189 ft | 419 kts | 257° |
| 2026-04-23 16:36 | 33.44762 | -122.75505 | 36191 ft | 418 kts | 257° |
| 2026-04-23 16:37 | 33.43376 | -122.82230 | 36198 ft | 418 kts | 257° |
| 2026-04-23 16:37 | 33.41978 | -122.88982 | 36196 ft | 417 kts | 257° |
| 2026-04-23 16:38 | 33.40579 | -122.95715 | 36199 ft | 417 kts | 257° |
| 2026-04-23 16:38 | 33.39177 | -123.02435 | 36202 ft | 416 kts | 257° |
| 2026-04-23 16:39 | 33.37771 | -123.09157 | 36204 ft | 416 kts | 257° |
| 2026-04-23 16:39 | 33.36361 | -123.15878 | 36205 ft | 416 kts | 257° |
| 2026-04-23 16:40 | 33.34959 | -123.22545 | 36207 ft | 415 kts | 257° |
| 2026-04-23 16:40 | 33.33547 | -123.29239 | 36206 ft | 415 kts | 257° |
| 2026-04-23 16:41 | 33.32130 | -123.35933 | 36207 ft | 414 kts | 257° |
| 2026-04-23 16:41 | 33.30714 | -123.42606 | 36211 ft | 414 kts | 257° |
| 2026-04-23 16:42 | 33.29296 | -123.49274 | 36216 ft | 413 kts | 257° |
| 2026-04-23 16:42 | 33.27884 | -123.55888 | 36213 ft | 413 kts | 257° |
| 2026-04-23 16:43 | 33.26460 | -123.62543 | 36218 ft | 413 kts | 257° |
| 2026-04-23 16:43 | 33.25037 | -123.69177 | 36255 ft | 413 kts | 256° |
| 2026-04-23 16:44 | 33.23580 | -123.75953 | 36222 ft | 428 kts | 256° |
| 2026-04-23 16:44 | 33.22072 | -123.82936 | 36232 ft | 440 kts | 256° |
| 2026-04-23 16:45 | 33.20526 | -123.90080 | 36229 ft | 446 kts | 256° |
| 2026-04-23 16:45 | 33.18966 | -123.97264 | 36226 ft | 446 kts | 256° |
| 2026-04-23 16:46 | 33.17410 | -124.04408 | 36229 ft | 444 kts | 256° |
| 2026-04-23 16:46 | 33.15860 | -124.11506 | 36227 ft | 441 kts | 256° |
| 2026-04-23 16:47 | 33.14313 | -124.18566 | 36227 ft | 438 kts | 256° |
| 2026-04-23 16:47 | 33.12780 | -124.25546 | 36228 ft | 437 kts | 256° |
| 2026-04-23 16:48 | 33.11239 | -124.32542 | 36236 ft | 436 kts | 255° |
| 2026-04-23 16:48 | 33.09695 | -124.39534 | 36236 ft | 436 kts | 255° |
| 2026-04-23 16:49 | 33.08147 | -124.46524 | 36240 ft | 436 kts | 255° |
| 2026-04-23 16:49 | 33.06590 | -124.53533 | 36242 ft | 437 kts | 255° |
| 2026-04-23 16:50 | 33.05023 | -124.60540 | 36243 ft | 438 kts | 255° |
| 2026-04-23 16:50 | 33.03449 | -124.67556 | 36243 ft | 438 kts | 255° |
| 2026-04-23 16:51 | 33.01883 | -124.74525 | 36246 ft | 438 kts | 255° |
| 2026-04-23 16:51 | 33.00347 | -124.81341 | 36248 ft | 438 kts | 255° |
| 2026-04-23 16:52 | 32.98762 | -124.88356 | 36248 ft | 437 kts | 255° |
| 2026-04-23 16:52 | 32.97179 | -124.95343 | 36247 ft | 437 kts | 255° |
| 2026-04-23 16:53 | 32.95602 | -125.02286 | 36249 ft | 436 kts | 254° |
| 2026-04-23 16:53 | 32.94017 | -125.09245 | 36250 ft | 435 kts | 254° |
| 2026-04-23 16:54 | 32.92428 | -125.16198 | 36253 ft | 435 kts | 254° |
| 2026-04-23 16:54 | 32.90839 | -125.23136 | 36252 ft | 434 kts | 254° |
| 2026-04-23 16:55 | 32.89248 | -125.30062 | 36256 ft | 434 kts | 254° |
| 2026-04-23 16:55 | 32.87655 | -125.36974 | 36259 ft | 433 kts | 254° |
| 2026-04-23 16:56 | 32.86060 | -125.43883 | 36257 ft | 432 kts | 253° |
| 2026-04-23 16:56 | 32.84460 | -125.50788 | 36260 ft | 432 kts | 253° |
| 2026-04-23 16:57 | 32.82864 | -125.57662 | 36264 ft | 432 kts | 253° |
| 2026-04-23 16:57 | 32.81273 | -125.64493 | 36264 ft | 431 kts | 253° |
| 2026-04-23 16:58 | 32.79667 | -125.71368 | 36266 ft | 431 kts | 253° |
| 2026-04-23 16:58 | 32.78062 | -125.78224 | 36264 ft | 430 kts | 253° |
| 2026-04-23 16:59 | 32.76452 | -125.85081 | 36263 ft | 430 kts | 253° |
| 2026-04-23 16:59 | 32.74841 | -125.91927 | 36262 ft | 430 kts | 253° |
| 2026-04-23 17:00 | 32.73227 | -125.98766 | 36268 ft | 429 kts | 253° |
| 2026-04-23 17:00 | 32.71622 | -126.05546 | 36266 ft | 429 kts | 253° |
| 2026-04-23 17:01 | 32.70005 | -126.12361 | 36268 ft | 429 kts | 252° |
| 2026-04-23 17:01 | 32.68659 | -126.18019 | 36275 ft | 428 kts | 252° |
| 2026-04-23 17:02 | 32.67037 | -126.24823 | 36273 ft | 428 kts | 252° |
| 2026-04-23 17:02 | 32.65412 | -126.31620 | 36261 ft | 428 kts | 252° |
| 2026-04-23 17:03 | 32.63784 | -126.38411 | 36272 ft | 428 kts | 252° |
| 2026-04-23 17:03 | 32.62153 | -126.45200 | 36267 ft | 427 kts | 252° |
| 2026-04-23 17:04 | 32.60521 | -126.51971 | 36265 ft | 427 kts | 252° |
| 2026-04-23 17:04 | 32.58883 | -126.58755 | 36262 ft | 427 kts | 252° |
| 2026-04-23 17:05 | 32.57241 | -126.65533 | 36266 ft | 427 kts | 252° |
| 2026-04-23 17:05 | 32.55594 | -126.72316 | 36269 ft | 428 kts | 252° |
| 2026-04-23 17:06 | 32.53954 | -126.79052 | 36269 ft | 428 kts | 252° |
| 2026-04-23 17:06 | 32.52298 | -126.85839 | 36267 ft | 428 kts | 252° |
| 2026-04-23 17:07 | 32.50647 | -126.92585 | 36267 ft | 428 kts | 252° |
| 2026-04-23 17:07 | 32.48984 | -126.99364 | 36266 ft | 428 kts | 252° |
| 2026-04-23 17:08 | 32.47316 | -127.06148 | 36267 ft | 429 kts | 252° |
| 2026-04-23 17:08 | 32.45643 | -127.12932 | 36266 ft | 429 kts | 252° |
| 2026-04-23 17:09 | 32.43970 | -127.19704 | 36270 ft | 429 kts | 252° |
| 2026-04-23 17:09 | 32.42288 | -127.26489 | 36272 ft | 429 kts | 252° |
| 2026-04-23 17:10 | 32.40616 | -127.33217 | 36273 ft | 429 kts | 251° |
| 2026-04-23 17:10 | 32.38930 | -127.39988 | 36271 ft | 429 kts | 251° |
| 2026-04-23 17:11 | 32.37235 | -127.46776 | 36274 ft | 429 kts | 251° |
| 2026-04-23 17:11 | 32.35539 | -127.53553 | 36271 ft | 430 kts | 251° |
| 2026-04-23 17:12 | 32.33837 | -127.60335 | 36277 ft | 430 kts | 251° |
| 2026-04-23 17:12 | 32.32133 | -127.67108 | 36275 ft | 430 kts | 251° |
| 2026-04-23 17:13 | 32.30420 | -127.73898 | 36275 ft | 431 kts | 251° |
| 2026-04-23 17:13 | 32.28703 | -127.80689 | 36276 ft | 431 kts | 251° |
| 2026-04-23 17:14 | 32.26994 | -127.87430 | 36272 ft | 431 kts | 251° |
| 2026-04-23 17:14 | 32.25269 | -127.94222 | 36287 ft | 431 kts | 251° |
| 2026-04-23 17:15 | 32.23541 | -128.01001 | 36289 ft | 431 kts | 251° |
| 2026-04-23 17:15 | 32.21806 | -128.07798 | 36290 ft | 431 kts | 251° |
| 2026-04-23 17:16 | 32.20069 | -128.14584 | 36287 ft | 431 kts | 251° |
| 2026-04-23 17:16 | 32.18329 | -128.21364 | 36290 ft | 431 kts | 251° |
| 2026-04-23 17:17 | 32.16598 | -128.28089 | 36289 ft | 431 kts | 251° |
| 2026-04-23 17:17 | 32.14850 | -128.34869 | 36289 ft | 431 kts | 251° |
| 2026-04-23 17:18 | 32.12226 | -128.45014 | 36287 ft | 431 kts | 251° |
| 2026-04-23 17:19 | 32.10471 | -128.51779 | 36287 ft | 431 kts | 251° |
| 2026-04-23 17:19 | 32.08722 | -128.58501 | 36289 ft | 431 kts | 251° |
| 2026-04-23 17:20 | 32.06959 | -128.65262 | 36288 ft | 431 kts | 251° |
| 2026-04-23 17:21 | 32.03426 | -128.78765 | 36273 ft | 431 kts | 251° |
| 2026-04-23 17:21 | 32.00768 | -128.88878 | 36279 ft | 431 kts | 252° |
| 2026-04-23 17:22 | 31.98109 | -128.98961 | 36277 ft | 430 kts | 252° |
| 2026-04-23 17:23 | 31.95438 | -129.09054 | 36276 ft | 430 kts | 252° |
| 2026-04-23 17:24 | 31.92758 | -129.19146 | 36278 ft | 430 kts | 251° |
| 2026-04-23 17:24 | 31.90078 | -129.29197 | 36277 ft | 431 kts | 251° |
| 2026-04-23 17:25 | 31.87380 | -129.39285 | 36277 ft | 431 kts | 251° |
| 2026-04-23 17:26 | 31.83766 | -129.52739 | 36280 ft | 431 kts | 251° |
| 2026-04-23 17:27 | 31.81054 | -129.62796 | 36279 ft | 431 kts | 251° |
| 2026-04-23 17:27 | 31.79239 | -129.69506 | 36283 ft | 431 kts | 251° |
| 2026-04-23 17:28 | 31.77419 | -129.76219 | 36283 ft | 431 kts | 251° |
| 2026-04-23 17:28 | 31.75596 | -129.82926 | 36280 ft | 431 kts | 251° |
| 2026-04-23 17:29 | 31.73781 | -129.89590 | 36280 ft | 430 kts | 251° |
| 2026-04-23 17:30 | 31.71336 | -129.98542 | 36280 ft | 430 kts | 251° |
| 2026-04-23 17:30 | 31.68283 | -130.09681 | 36279 ft | 430 kts | 251° |
| 2026-04-23 17:31 | 31.66446 | -130.16362 | 36279 ft | 430 kts | 251° |
| 2026-04-23 17:31 | 31.64604 | -130.23048 | 36278 ft | 430 kts | 251° |
| 2026-04-23 17:32 | 31.62769 | -130.29691 | 36281 ft | 430 kts | 251° |
| 2026-04-23 17:32 | 31.60921 | -130.36370 | 36281 ft | 430 kts | 251° |
| 2026-04-23 17:33 | 31.59068 | -130.43046 | 36282 ft | 430 kts | 251° |
| 2026-04-23 17:33 | 31.57211 | -130.49726 | 36282 ft | 430 kts | 251° |
| 2026-04-23 17:34 | 31.55352 | -130.56397 | 36280 ft | 430 kts | 251° |
| 2026-04-23 17:35 | 31.52565 | -130.66368 | 36282 ft | 431 kts | 251° |
| 2026-04-23 17:35 | 31.49756 | -130.76385 | 36281 ft | 431 kts | 251° |
| 2026-04-23 17:36 | 31.47879 | -130.83062 | 36280 ft | 431 kts | 251° |
| 2026-04-23 17:36 | 31.45998 | -130.89735 | 36279 ft | 431 kts | 251° |
| 2026-04-23 17:37 | 31.44116 | -130.96397 | 36282 ft | 431 kts | 251° |
| 2026-04-23 17:38 | 31.41302 | -131.06334 | 36281 ft | 430 kts | 251° |
| 2026-04-23 17:38 | 31.39412 | -131.12987 | 36280 ft | 430 kts | 251° |
| 2026-04-23 17:39 | 31.37521 | -131.19631 | 36281 ft | 430 kts | 251° |
| 2026-04-23 17:39 | 31.35626 | -131.26270 | 36281 ft | 430 kts | 251° |
| 2026-04-23 17:40 | 31.33730 | -131.32904 | 36280 ft | 430 kts | 251° |
| 2026-04-23 17:40 | 31.31828 | -131.39539 | 36281 ft | 430 kts | 251° |
| 2026-04-23 17:41 | 31.29925 | -131.46167 | 36281 ft | 430 kts | 251° |
| 2026-04-23 17:41 | 31.27076 | -131.56061 | 36278 ft | 430 kts | 251° |
| 2026-04-23 17:42 | 31.24205 | -131.65995 | 36279 ft | 429 kts | 251° |
| 2026-04-23 17:43 | 31.22292 | -131.72601 | 36282 ft | 429 kts | 251° |
| 2026-04-23 17:43 | 31.20373 | -131.79209 | 36281 ft | 429 kts | 251° |
| 2026-04-23 17:44 | 31.18455 | -131.85804 | 36280 ft | 429 kts | 251° |
| 2026-04-23 17:44 | 31.15569 | -131.95695 | 36280 ft | 428 kts | 251° |
| 2026-04-23 17:45 | 31.12684 | -132.05557 | 36279 ft | 428 kts | 251° |
| 2026-04-23 17:46 | 31.09800 | -132.15382 | 36277 ft | 428 kts | 251° |
| 2026-04-23 17:46 | 31.07865 | -132.21930 | 36278 ft | 427 kts | 251° |
| 2026-04-23 17:47 | 31.05922 | -132.28491 | 36279 ft | 427 kts | 251° |
| 2026-04-23 17:48 | 31.03009 | -132.38309 | 36279 ft | 427 kts | 251° |
| 2026-04-23 17:48 | 31.01067 | -132.44842 | 36279 ft | 426 kts | 251° |
| 2026-04-23 17:49 | 30.99134 | -132.51327 | 36280 ft | 426 kts | 251° |
| 2026-04-23 17:49 | 30.97190 | -132.57839 | 36281 ft | 425 kts | 251° |
| 2026-04-23 17:50 | 30.95245 | -132.64340 | 36279 ft | 425 kts | 251° |
| 2026-04-23 17:50 | 30.92647 | -132.73000 | 36278 ft | 425 kts | 251° |
| 2026-04-23 17:51 | 30.90697 | -132.79485 | 36281 ft | 424 kts | 251° |
| 2026-04-23 17:52 | 30.87767 | -132.89207 | 36281 ft | 424 kts | 251° |
| 2026-04-23 17:52 | 30.84830 | -132.98919 | 36281 ft | 423 kts | 251° |
| 2026-04-23 17:53 | 30.81901 | -133.08577 | 36282 ft | 423 kts | 251° |
| 2026-04-23 17:54 | 30.79936 | -133.15040 | 36281 ft | 423 kts | 251° |
| 2026-04-23 17:54 | 30.76987 | -133.24712 | 36280 ft | 423 kts | 251° |
| 2026-04-23 17:55 | 30.74037 | -133.34361 | 36279 ft | 422 kts | 252° |
| 2026-04-23 17:56 | 30.72066 | -133.40788 | 36278 ft | 421 kts | 252° |
| 2026-04-23 17:56 | 30.69112 | -133.50402 | 36281 ft | 421 kts | 252° |
| 2026-04-23 17:57 | 30.67151 | -133.56765 | 36279 ft | 421 kts | 252° |
| 2026-04-23 17:58 | 30.64187 | -133.66363 | 36279 ft | 420 kts | 252° |
| 2026-04-23 17:58 | 30.62209 | -133.72752 | 36275 ft | 420 kts | 252° |
| 2026-04-23 17:59 | 30.60230 | -133.79130 | 36276 ft | 420 kts | 252° |
| 2026-04-23 17:59 | 30.58246 | -133.85512 | 36277 ft | 420 kts | 252° |
| 2026-04-23 18:00 | 30.56260 | -133.91888 | 36277 ft | 420 kts | 252° |
| 2026-04-23 18:00 | 30.54273 | -133.98254 | 36273 ft | 420 kts | 252° |
| 2026-04-23 18:01 | 30.52280 | -134.04629 | 36277 ft | 420 kts | 252° |
| 2026-04-23 18:01 | 30.50289 | -134.10985 | 36278 ft | 420 kts | 251° |
| 2026-04-23 18:02 | 30.48300 | -134.17321 | 36274 ft | 420 kts | 251° |
| 2026-04-23 18:02 | 30.46295 | -134.23693 | 36275 ft | 420 kts | 251° |
| 2026-04-23 18:03 | 30.44286 | -134.30067 | 36273 ft | 420 kts | 251° |
| 2026-04-23 18:03 | 30.42277 | -134.36431 | 36274 ft | 420 kts | 251° |
| 2026-04-23 18:04 | 30.40264 | -134.42793 | 36273 ft | 421 kts | 251° |
| 2026-04-23 18:04 | 30.38260 | -134.49116 | 36271 ft | 421 kts | 251° |
| 2026-04-23 18:05 | 30.36238 | -134.55480 | 36271 ft | 421 kts | 251° |
| 2026-04-23 18:05 | 30.34215 | -134.61838 | 36270 ft | 421 kts | 251° |
| 2026-04-23 18:06 | 30.32185 | -134.68206 | 36268 ft | 421 kts | 251° |
| 2026-04-23 18:06 | 30.30150 | -134.74575 | 36273 ft | 421 kts | 251° |
| 2026-04-23 18:07 | 30.28117 | -134.80926 | 36268 ft | 421 kts | 251° |
| 2026-04-23 18:07 | 30.26080 | -134.87278 | 36265 ft | 421 kts | 251° |
| 2026-04-23 18:08 | 30.24379 | -134.92573 | 36266 ft | 421 kts | 251° |
| 2026-04-23 18:08 | 30.22005 | -134.99948 | 36268 ft | 421 kts | 251° |
| 2026-04-23 18:09 | 30.19953 | -135.06310 | 36266 ft | 421 kts | 251° |
| 2026-04-23 18:09 | 30.17901 | -135.12659 | 36262 ft | 421 kts | 251° |
| 2026-04-23 18:10 | 30.15850 | -135.18994 | 36264 ft | 421 kts | 251° |
| 2026-04-23 18:10 | 30.13797 | -135.25322 | 36266 ft | 421 kts | 251° |
| 2026-04-23 18:11 | 30.11753 | -135.31611 | 36267 ft | 421 kts | 251° |
| 2026-04-23 18:11 | 30.09692 | -135.37941 | 36265 ft | 421 kts | 251° |
| 2026-04-23 18:12 | 30.07629 | -135.44264 | 36263 ft | 421 kts | 251° |
| 2026-04-23 18:12 | 30.05555 | -135.50610 | 36262 ft | 421 kts | 251° |
| 2026-04-23 18:13 | 30.03496 | -135.56898 | 36261 ft | 421 kts | 251° |
| 2026-04-23 18:13 | 30.01419 | -135.63228 | 36264 ft | 422 kts | 250° |
| 2026-04-23 18:14 | 29.99338 | -135.69560 | 36262 ft | 422 kts | 250° |
| 2026-04-23 18:14 | 29.97254 | -135.75888 | 36260 ft | 422 kts | 250° |
| 2026-04-23 18:15 | 29.95165 | -135.82220 | 36261 ft | 422 kts | 250° |
| 2026-04-23 18:15 | 29.93071 | -135.88555 | 36261 ft | 422 kts | 250° |
| 2026-04-23 18:16 | 29.90974 | -135.94887 | 36264 ft | 423 kts | 250° |
| 2026-04-23 18:16 | 29.88873 | -136.01219 | 36259 ft | 423 kts | 250° |
| 2026-04-23 18:17 | 29.85714 | -136.10719 | 36263 ft | 423 kts | 250° |
| 2026-04-23 18:17 | 29.83604 | -136.17049 | 36262 ft | 424 kts | 250° |
| 2026-04-23 18:18 | 29.81488 | -136.23385 | 36260 ft | 424 kts | 250° |
| 2026-04-23 18:18 | 29.79380 | -136.29686 | 36262 ft | 424 kts | 250° |
| 2026-04-23 18:19 | 29.77254 | -136.36030 | 36255 ft | 425 kts | 250° |
| 2026-04-23 18:19 | 29.75124 | -136.42374 | 36258 ft | 425 kts | 250° |
| 2026-04-23 18:20 | 29.72986 | -136.48729 | 36257 ft | 426 kts | 250° |
| 2026-04-23 18:20 | 29.70841 | -136.55093 | 36257 ft | 426 kts | 250° |
| 2026-04-23 18:21 | 29.68691 | -136.61461 | 36259 ft | 427 kts | 250° |
| 2026-04-23 18:21 | 29.66552 | -136.67782 | 36258 ft | 427 kts | 250° |
| 2026-04-23 18:22 | 29.64392 | -136.74157 | 36269 ft | 427 kts | 250° |
| 2026-04-23 18:22 | 29.62229 | -136.80528 | 36250 ft | 427 kts | 250° |
| 2026-04-23 18:23 | 29.58990 | -136.90046 | 36255 ft | 428 kts | 250° |
| 2026-04-23 18:24 | 29.55734 | -136.99585 | 36255 ft | 428 kts | 250° |
| 2026-04-23 18:25 | 29.52471 | -137.09122 | 36242 ft | 428 kts | 250° |
| 2026-04-23 18:25 | 29.50291 | -137.15478 | 36253 ft | 428 kts | 250° |
| 2026-04-23 18:26 | 29.48108 | -137.21832 | 36254 ft | 428 kts | 250° |
| 2026-04-23 18:26 | 29.45932 | -137.28154 | 36256 ft | 428 kts | 250° |
| 2026-04-23 18:27 | 29.43741 | -137.34509 | 36256 ft | 428 kts | 250° |
| 2026-04-23 18:27 | 29.41545 | -137.40866 | 36245 ft | 429 kts | 250° |
| 2026-04-23 18:28 | 29.39344 | -137.47226 | 36247 ft | 429 kts | 250° |
| 2026-04-23 18:28 | 29.37141 | -137.53580 | 36245 ft | 429 kts | 250° |
| 2026-04-23 18:29 | 29.34930 | -137.59945 | 36248 ft | 429 kts | 250° |
| 2026-04-23 18:29 | 29.32736 | -137.66252 | 36245 ft | 429 kts | 250° |
| 2026-04-23 18:30 | 29.30519 | -137.72613 | 36245 ft | 429 kts | 250° |
| 2026-04-23 18:30 | 29.28301 | -137.78965 | 36242 ft | 429 kts | 250° |
| 2026-04-23 18:31 | 29.26080 | -137.85313 | 36242 ft | 429 kts | 250° |
| 2026-04-23 18:31 | 29.23860 | -137.91647 | 36246 ft | 429 kts | 250° |
| 2026-04-23 18:32 | 29.21631 | -137.97997 | 36240 ft | 429 kts | 250° |
| 2026-04-23 18:32 | 29.19405 | -138.04328 | 36244 ft | 429 kts | 250° |
| 2026-04-23 18:33 | 29.17173 | -138.10661 | 36243 ft | 429 kts | 250° |
| 2026-04-23 18:33 | 29.14939 | -138.16991 | 36243 ft | 429 kts | 250° |
| 2026-04-23 18:34 | 29.12714 | -138.23286 | 36242 ft | 429 kts | 250° |
| 2026-04-23 18:34 | 29.10471 | -138.29618 | 36238 ft | 429 kts | 250° |
| 2026-04-23 18:35 | 29.08227 | -138.35943 | 36240 ft | 429 kts | 250° |
| 2026-04-23 18:35 | 29.05979 | -138.42269 | 36239 ft | 430 kts | 250° |
| 2026-04-23 18:36 | 29.03727 | -138.48594 | 36235 ft | 430 kts | 250° |
| 2026-04-23 18:36 | 29.01483 | -138.54885 | 36237 ft | 430 kts | 250° |
| 2026-04-23 18:37 | 28.99223 | -138.61210 | 36237 ft | 430 kts | 250° |
| 2026-04-23 18:37 | 28.96953 | -138.67553 | 36232 ft | 430 kts | 250° |
| 2026-04-23 18:38 | 28.94685 | -138.73878 | 36234 ft | 430 kts | 250° |
| 2026-04-23 18:38 | 28.92429 | -138.80160 | 36235 ft | 430 kts | 250° |
| 2026-04-23 18:39 | 28.90523 | -138.85457 | 36238 ft | 430 kts | 250° |
| 2026-04-23 18:39 | 28.88247 | -138.91773 | 36232 ft | 430 kts | 250° |
| 2026-04-23 18:40 | 28.85984 | -138.98043 | 36231 ft | 430 kts | 250° |
| 2026-04-23 18:40 | 28.83702 | -139.04357 | 36232 ft | 430 kts | 250° |
| 2026-04-23 18:41 | 28.81413 | -139.10675 | 36229 ft | 430 kts | 250° |
| 2026-04-23 18:41 | 28.79127 | -139.16977 | 36230 ft | 430 kts | 249° |
| 2026-04-23 18:42 | 28.76833 | -139.23288 | 36231 ft | 431 kts | 249° |
| 2026-04-23 18:42 | 28.74538 | -139.29593 | 36229 ft | 431 kts | 249° |
| 2026-04-23 18:43 | 28.72237 | -139.35903 | 36235 ft | 431 kts | 249° |
| 2026-04-23 18:43 | 28.69935 | -139.42204 | 36237 ft | 431 kts | 249° |
| 2026-04-23 18:44 | 28.67627 | -139.48512 | 36218 ft | 432 kts | 249° |
| 2026-04-23 18:44 | 28.65312 | -139.54827 | 36228 ft | 432 kts | 249° |
| 2026-04-23 18:45 | 28.62996 | -139.61136 | 36229 ft | 432 kts | 249° |
| 2026-04-23 18:45 | 28.60688 | -139.67409 | 36226 ft | 432 kts | 249° |
| 2026-04-23 18:46 | 28.58364 | -139.73719 | 36227 ft | 432 kts | 249° |
| 2026-04-23 18:46 | 28.56033 | -139.80033 | 36218 ft | 433 kts | 249° |
| 2026-04-23 18:47 | 28.53699 | -139.86347 | 36224 ft | 433 kts | 249° |
| 2026-04-23 18:47 | 28.51374 | -139.92626 | 36220 ft | 433 kts | 249° |
| 2026-04-23 18:48 | 28.49033 | -139.98938 | 36226 ft | 434 kts | 249° |
| 2026-04-23 18:48 | 28.46684 | -140.05258 | 36219 ft | 434 kts | 249° |
| 2026-04-23 18:49 | 28.44335 | -140.11570 | 36214 ft | 434 kts | 249° |
| 2026-04-23 18:49 | 28.41980 | -140.17887 | 36217 ft | 434 kts | 249° |
| 2026-04-23 18:50 | 28.40020 | -140.23137 | 36215 ft | 434 kts | 249° |
| 2026-04-23 18:50 | 28.37255 | -140.30528 | 36214 ft | 434 kts | 249° |
| 2026-04-23 18:51 | 28.34893 | -140.36833 | 36210 ft | 434 kts | 249° |
| 2026-04-23 18:51 | 28.32537 | -140.43110 | 36213 ft | 434 kts | 249° |
| 2026-04-23 18:52 | 28.30166 | -140.49417 | 36213 ft | 434 kts | 249° |
| 2026-04-23 18:52 | 28.27793 | -140.55720 | 36211 ft | 434 kts | 249° |
| 2026-04-23 18:53 | 28.25420 | -140.62009 | 36207 ft | 433 kts | 249° |
| 2026-04-23 18:53 | 28.23045 | -140.68297 | 36207 ft | 433 kts | 249° |
| 2026-04-23 18:54 | 28.20668 | -140.74578 | 36205 ft | 433 kts | 249° |
| 2026-04-23 18:54 | 28.18303 | -140.80815 | 36205 ft | 433 kts | 249° |
| 2026-04-23 18:55 | 28.15918 | -140.87097 | 36203 ft | 434 kts | 249° |
| 2026-04-23 18:55 | 28.13527 | -140.93385 | 36200 ft | 434 kts | 249° |
| 2026-04-23 18:56 | 28.11539 | -140.98603 | 36204 ft | 434 kts | 249° |
| 2026-04-23 18:56 | 28.08734 | -141.05957 | 36201 ft | 435 kts | 249° |
| 2026-04-23 18:57 | 28.06340 | -141.12221 | 36189 ft | 436 kts | 249° |
| 2026-04-23 18:57 | 28.03929 | -141.18518 | 36197 ft | 436 kts | 249° |
| 2026-04-23 18:58 | 28.01510 | -141.24825 | 36195 ft | 436 kts | 249° |
| 2026-04-23 18:58 | 27.99092 | -141.31121 | 36194 ft | 437 kts | 249° |
| 2026-04-23 18:59 | 27.96667 | -141.37426 | 36192 ft | 437 kts | 249° |
| 2026-04-23 18:59 | 27.94240 | -141.43724 | 36192 ft | 437 kts | 249° |
| 2026-04-23 19:00 | 27.91808 | -141.50024 | 36187 ft | 437 kts | 249° |
| 2026-04-23 19:00 | 27.89375 | -141.56318 | 36188 ft | 437 kts | 249° |
| 2026-04-23 19:01 | 27.86932 | -141.62625 | 36187 ft | 437 kts | 249° |
| 2026-04-23 19:01 | 27.84515 | -141.68858 | 36192 ft | 438 kts | 249° |
| 2026-04-23 19:02 | 27.82462 | -141.74144 | 36186 ft | 438 kts | 249° |
| 2026-04-23 19:02 | 27.79611 | -141.81472 | 36186 ft | 438 kts | 249° |
| 2026-04-23 19:03 | 27.77156 | -141.87772 | 36186 ft | 439 kts | 249° |
| 2026-04-23 19:03 | 27.74695 | -141.94076 | 36186 ft | 439 kts | 249° |
| 2026-04-23 19:04 | 27.72231 | -142.00378 | 36184 ft | 439 kts | 249° |
| 2026-04-23 19:04 | 27.69768 | -142.06667 | 36176 ft | 439 kts | 248° |
| 2026-04-23 19:05 | 27.67295 | -142.12972 | 36180 ft | 439 kts | 248° |
| 2026-04-23 19:05 | 27.64819 | -142.19272 | 36178 ft | 439 kts | 248° |
| 2026-04-23 19:06 | 27.62357 | -142.25530 | 36176 ft | 439 kts | 248° |
| 2026-04-23 19:06 | 27.59874 | -142.31830 | 36180 ft | 440 kts | 248° |
| 2026-04-23 19:07 | 27.57384 | -142.38138 | 36167 ft | 440 kts | 248° |
| 2026-04-23 19:07 | 27.54891 | -142.44442 | 36167 ft | 439 kts | 248° |
| 2026-04-23 19:08 | 27.52408 | -142.50710 | 36171 ft | 438 kts | 248° |
| 2026-04-23 19:08 | 27.49924 | -142.56973 | 36169 ft | 437 kts | 248° |
| 2026-04-23 19:09 | 27.47440 | -142.63224 | 36162 ft | 437 kts | 248° |
| 2026-04-23 19:09 | 27.44953 | -142.69477 | 36162 ft | 437 kts | 248° |
| 2026-04-23 19:10 | 27.42484 | -142.75672 | 36166 ft | 437 kts | 248° |
| 2026-04-23 19:10 | 27.39989 | -142.81925 | 36174 ft | 438 kts | 248° |
| 2026-04-23 19:11 | 27.37477 | -142.88207 | 36157 ft | 439 kts | 248° |
| 2026-04-23 19:11 | 27.34968 | -142.94472 | 36165 ft | 439 kts | 248° |
| 2026-04-23 19:12 | 27.32883 | -142.99672 | 36162 ft | 438 kts | 248° |
| 2026-04-23 19:12 | 27.29963 | -143.06940 | 36180 ft | 439 kts | 248° |
| 2026-04-23 19:12 | 27.28704 | -143.10072 | 36474 ft | 439 kts | 248° |
| 2026-04-23 19:13 | 27.27450 | -143.13187 | 36858 ft | 435 kts | 248° |
| 2026-04-23 19:13 | 27.26205 | -143.16275 | 37243 ft | 433 kts | 248° |
| 2026-04-23 19:13 | 27.24967 | -143.19344 | 37625 ft | 431 kts | 249° |
| 2026-04-23 19:13 | 27.23732 | -143.22405 | 38019 ft | 429 kts | 249° |
| 2026-04-23 19:14 | 27.22494 | -143.25475 | 38073 ft | 433 kts | 249° |
| 2026-04-23 19:14 | 27.20005 | -143.31638 | 38144 ft | 433 kts | 249° |
| 2026-04-23 19:15 | 27.17530 | -143.37750 | 38163 ft | 428 kts | 249° |
| 2026-04-23 19:15 | 27.15084 | -143.43784 | 38142 ft | 427 kts | 249° |
| 2026-04-23 19:16 | 27.12624 | -143.49842 | 38137 ft | 425 kts | 248° |
| 2026-04-23 19:16 | 27.10169 | -143.55881 | 38145 ft | 424 kts | 248° |
| 2026-04-23 19:17 | 27.06484 | -143.64929 | 38140 ft | 425 kts | 248° |
| 2026-04-23 19:17 | 27.04016 | -143.70978 | 38128 ft | 427 kts | 248° |
| 2026-04-23 19:18 | 27.01537 | -143.77045 | 38137 ft | 429 kts | 248° |
| 2026-04-23 19:18 | 26.99047 | -143.83126 | 38127 ft | 431 kts | 248° |
| 2026-04-23 19:19 | 26.95298 | -143.92270 | 38125 ft | 430 kts | 248° |
| 2026-04-23 19:20 | 26.91549 | -144.01388 | 38133 ft | 428 kts | 248° |
| 2026-04-23 19:20 | 26.89057 | -144.07442 | 38141 ft | 428 kts | 248° |
| 2026-04-23 19:21 | 26.85319 | -144.16504 | 38130 ft | 428 kts | 248° |
| 2026-04-23 19:22 | 26.82819 | -144.22553 | 38129 ft | 428 kts | 248° |
| 2026-04-23 19:22 | 26.79048 | -144.31660 | 38119 ft | 429 kts | 248° |
| 2026-04-23 19:23 | 26.76553 | -144.37674 | 38129 ft | 428 kts | 248° |
| 2026-04-23 19:24 | 26.72776 | -144.46769 | 38106 ft | 431 kts | 248° |
| 2026-04-23 19:24 | 26.68988 | -144.55861 | 38116 ft | 429 kts | 248° |
| 2026-04-23 19:25 | 26.63942 | -144.67944 | 38129 ft | 428 kts | 248° |
| 2026-04-23 19:26 | 26.60578 | -144.75982 | 38126 ft | 429 kts | 248° |
| 2026-04-23 19:27 | 26.54225 | -144.91120 | 38115 ft | 431 kts | 248° |
| 2026-04-23 19:28 | 26.49110 | -145.03268 | 38111 ft | 433 kts | 248° |
| 2026-04-23 19:29 | 26.45257 | -145.12394 | 38106 ft | 434 kts | 248° |
| 2026-04-23 19:30 | 26.41397 | -145.21519 | 38127 ft | 437 kts | 248° |
| 2026-04-23 19:31 | 26.37477 | -145.30764 | 38099 ft | 437 kts | 248° |
| 2026-04-23 19:31 | 26.34886 | -145.36858 | 38099 ft | 433 kts | 248° |
| 2026-04-23 19:32 | 26.32325 | -145.42879 | 38104 ft | 431 kts | 248° |
| 2026-04-23 19:32 | 26.29737 | -145.48955 | 38095 ft | 430 kts | 248° |
| 2026-04-23 19:33 | 26.27185 | -145.54940 | 38103 ft | 430 kts | 248° |
| 2026-04-23 19:33 | 26.23312 | -145.64005 | 38107 ft | 432 kts | 248° |
| 2026-04-23 19:34 | 26.20717 | -145.70066 | 38110 ft | 433 kts | 248° |
| 2026-04-23 19:35 | 26.16828 | -145.79134 | 38110 ft | 435 kts | 248° |
| 2026-04-23 19:35 | 26.14197 | -145.85259 | 38106 ft | 436 kts | 248° |
| 2026-04-23 19:36 | 26.11594 | -145.91309 | 38103 ft | 436 kts | 248° |
| 2026-04-23 19:36 | 26.08974 | -145.97389 | 38104 ft | 435 kts | 248° |
| 2026-04-23 19:37 | 26.06353 | -146.03465 | 38103 ft | 435 kts | 248° |
| 2026-04-23 19:37 | 26.03755 | -146.09480 | 38104 ft | 434 kts | 248° |
| 2026-04-23 19:38 | 26.01140 | -146.15526 | 38101 ft | 433 kts | 248° |
| 2026-04-23 19:38 | 25.98520 | -146.21566 | 38108 ft | 433 kts | 248° |
| 2026-04-23 19:39 | 25.95904 | -146.27583 | 38110 ft | 432 kts | 248° |
| 2026-04-23 19:39 | 25.93282 | -146.33610 | 38106 ft | 432 kts | 248° |
| 2026-04-23 19:40 | 25.90680 | -146.39584 | 38105 ft | 432 kts | 248° |
| 2026-04-23 19:40 | 25.88059 | -146.45595 | 38108 ft | 432 kts | 248° |
| 2026-04-23 19:41 | 25.85430 | -146.51615 | 38108 ft | 433 kts | 248° |
| 2026-04-23 19:41 | 25.82801 | -146.57627 | 38104 ft | 433 kts | 248° |
| 2026-04-23 19:42 | 25.80164 | -146.63648 | 38103 ft | 433 kts | 248° |
| 2026-04-23 19:42 | 25.77528 | -146.69660 | 38110 ft | 433 kts | 248° |
| 2026-04-23 19:43 | 25.74885 | -146.75678 | 38107 ft | 434 kts | 248° |
| 2026-04-23 19:43 | 25.72241 | -146.81692 | 38106 ft | 434 kts | 248° |
| 2026-04-23 19:44 | 25.69614 | -146.87656 | 38102 ft | 433 kts | 248° |
| 2026-04-23 19:44 | 25.66962 | -146.93670 | 38105 ft | 433 kts | 248° |
| 2026-04-23 19:45 | 25.64307 | -146.99684 | 38104 ft | 433 kts | 248° |
| 2026-04-23 19:45 | 25.61672 | -147.05644 | 38109 ft | 433 kts | 248° |
| 2026-04-23 19:46 | 25.59016 | -147.11642 | 38107 ft | 433 kts | 248° |
| 2026-04-23 19:46 | 25.56360 | -147.17633 | 38112 ft | 433 kts | 248° |
| 2026-04-23 19:47 | 25.53703 | -147.23618 | 38114 ft | 433 kts | 248° |
| 2026-04-23 19:47 | 25.51042 | -147.29603 | 38112 ft | 433 kts | 248° |
| 2026-04-23 19:48 | 25.48380 | -147.35584 | 38107 ft | 433 kts | 248° |
| 2026-04-23 19:48 | 25.45715 | -147.41561 | 38107 ft | 433 kts | 248° |
| 2026-04-23 19:49 | 25.43063 | -147.47503 | 38103 ft | 433 kts | 248° |
| 2026-04-23 19:49 | 25.40389 | -147.53485 | 38118 ft | 433 kts | 248° |
| 2026-04-23 19:50 | 25.37713 | -147.59464 | 38113 ft | 434 kts | 248° |
| 2026-04-23 19:50 | 25.35033 | -147.65445 | 38106 ft | 434 kts | 248° |
| 2026-04-23 19:51 | 25.32347 | -147.71429 | 38109 ft | 434 kts | 248° |
| 2026-04-23 19:51 | 25.29665 | -147.77396 | 38113 ft | 434 kts | 248° |
| 2026-04-23 19:52 | 25.26991 | -147.83340 | 38112 ft | 434 kts | 248° |
| 2026-04-23 19:52 | 25.24300 | -147.89312 | 38113 ft | 434 kts | 248° |
| 2026-04-23 19:53 | 25.21602 | -147.95291 | 38111 ft | 435 kts | 248° |
| 2026-04-23 19:53 | 25.18905 | -148.01262 | 38113 ft | 435 kts | 248° |
| 2026-04-23 19:54 | 25.16202 | -148.07236 | 38109 ft | 435 kts | 248° |
| 2026-04-23 19:54 | 25.13491 | -148.13221 | 38114 ft | 435 kts | 248° |
| 2026-04-23 19:55 | 25.10780 | -148.19196 | 38114 ft | 435 kts | 248° |
| 2026-04-23 19:55 | 25.08068 | -148.25167 | 38114 ft | 436 kts | 248° |
| 2026-04-23 19:56 | 25.05367 | -148.31106 | 38114 ft | 436 kts | 248° |
| 2026-04-23 19:56 | 25.02647 | -148.37080 | 38113 ft | 436 kts | 248° |
| 2026-04-23 19:57 | 24.99921 | -148.43060 | 38114 ft | 436 kts | 248° |
| 2026-04-23 19:57 | 24.97193 | -148.49033 | 38113 ft | 436 kts | 248° |
| 2026-04-23 19:58 | 24.94464 | -148.55001 | 38117 ft | 437 kts | 248° |
| 2026-04-23 19:58 | 24.91722 | -148.60992 | 38117 ft | 437 kts | 248° |
| 2026-04-23 19:59 | 24.88984 | -148.66964 | 38121 ft | 437 kts | 248° |
| 2026-04-23 19:59 | 24.86236 | -148.72952 | 38115 ft | 437 kts | 248° |
| 2026-04-23 20:00 | 24.83504 | -148.78895 | 38118 ft | 437 kts | 248° |
| 2026-04-23 20:00 | 24.80741 | -148.84899 | 38114 ft | 437 kts | 248° |
| 2026-04-23 20:01 | 24.78005 | -148.90836 | 38116 ft | 437 kts | 248° |
| 2026-04-23 20:01 | 24.75254 | -148.96799 | 38121 ft | 437 kts | 248° |
| 2026-04-23 20:02 | 24.72495 | -149.02770 | 38122 ft | 438 kts | 248° |
| 2026-04-23 20:02 | 24.69734 | -149.08738 | 38121 ft | 438 kts | 248° |
| 2026-04-23 20:03 | 24.66973 | -149.14700 | 38116 ft | 438 kts | 248° |
| 2026-04-23 20:03 | 24.64199 | -149.20680 | 38121 ft | 438 kts | 248° |
| 2026-04-23 20:04 | 24.61428 | -149.26646 | 38125 ft | 438 kts | 248° |
| 2026-04-23 20:04 | 24.58658 | -149.32603 | 38128 ft | 438 kts | 248° |
| 2026-04-23 20:05 | 24.56349 | -149.37563 | 38118 ft | 438 kts | 248° |
| 2026-04-23 20:05 | 24.53115 | -149.44500 | 38122 ft | 438 kts | 248° |
| 2026-04-23 20:06 | 24.50334 | -149.50458 | 38121 ft | 438 kts | 248° |
| 2026-04-23 20:06 | 24.47549 | -149.56416 | 38122 ft | 438 kts | 248° |
| 2026-04-23 20:07 | 24.44766 | -149.62363 | 38127 ft | 438 kts | 248° |
| 2026-04-23 20:07 | 24.41973 | -149.68321 | 38126 ft | 438 kts | 248° |
| 2026-04-23 20:08 | 24.39185 | -149.74265 | 38127 ft | 439 kts | 248° |
| 2026-04-23 20:08 | 24.36385 | -149.80225 | 38126 ft | 439 kts | 248° |
| 2026-04-23 20:09 | 24.33590 | -149.86167 | 38124 ft | 439 kts | 248° |
| 2026-04-23 20:09 | 24.30804 | -149.92081 | 38123 ft | 439 kts | 247° |
| 2026-04-23 20:10 | 24.28457 | -149.97057 | 38126 ft | 439 kts | 248° |
| 2026-04-23 20:10 | 24.25194 | -150.03969 | 38127 ft | 439 kts | 247° |
| 2026-04-23 20:11 | 24.22379 | -150.09923 | 38128 ft | 440 kts | 247° |
| 2026-04-23 20:11 | 24.19562 | -150.15874 | 38128 ft | 440 kts | 247° |
| 2026-04-23 20:12 | 24.16756 | -150.21794 | 38128 ft | 440 kts | 247° |
| 2026-04-23 20:12 | 24.14391 | -150.26778 | 38126 ft | 440 kts | 247° |
| 2026-04-23 20:13 | 24.11567 | -150.32723 | 38130 ft | 440 kts | 247° |
| 2026-04-23 20:13 | 24.08738 | -150.38671 | 38132 ft | 440 kts | 247° |
| 2026-04-23 20:14 | 24.05926 | -150.44574 | 38134 ft | 440 kts | 247° |
| 2026-04-23 20:14 | 24.03089 | -150.50523 | 38139 ft | 441 kts | 247° |
| 2026-04-23 20:15 | 24.00250 | -150.56469 | 38134 ft | 441 kts | 247° |
| 2026-04-23 20:15 | 23.97406 | -150.62417 | 38137 ft | 441 kts | 247° |
| 2026-04-23 20:16 | 23.94558 | -150.68367 | 38135 ft | 441 kts | 247° |
| 2026-04-23 20:16 | 23.91711 | -150.74309 | 38132 ft | 441 kts | 247° |
| 2026-04-23 20:17 | 23.88874 | -150.80221 | 38134 ft | 441 kts | 247° |
| 2026-04-23 20:17 | 23.86020 | -150.86161 | 38136 ft | 441 kts | 247° |
| 2026-04-23 20:18 | 23.83166 | -150.92094 | 38136 ft | 441 kts | 247° |
| 2026-04-23 20:18 | 23.80304 | -150.98037 | 38137 ft | 442 kts | 247° |
| 2026-04-23 20:19 | 23.77437 | -151.03981 | 38137 ft | 442 kts | 247° |
| 2026-04-23 20:19 | 23.74572 | -151.09915 | 38135 ft | 442 kts | 247° |
| 2026-04-23 20:20 | 23.71721 | -151.15813 | 38136 ft | 442 kts | 247° |
| 2026-04-23 20:20 | 23.68850 | -151.21745 | 38136 ft | 442 kts | 247° |
| 2026-04-23 20:21 | 23.65971 | -151.27686 | 38138 ft | 442 kts | 247° |
| 2026-04-23 20:21 | 23.63088 | -151.33627 | 38140 ft | 443 kts | 247° |
| 2026-04-23 20:22 | 23.60209 | -151.39554 | 38136 ft | 443 kts | 247° |
| 2026-04-23 20:22 | 23.57318 | -151.45498 | 38130 ft | 443 kts | 247° |
| 2026-04-23 20:23 | 23.54423 | -151.51443 | 38151 ft | 443 kts | 247° |
| 2026-04-23 20:23 | 23.51549 | -151.57336 | 38150 ft | 443 kts | 247° |
| 2026-04-23 20:24 | 23.48647 | -151.63282 | 38129 ft | 444 kts | 246° |
| 2026-04-23 20:24 | 23.45750 | -151.69209 | 38138 ft | 444 kts | 246° |
| 2026-04-23 20:25 | 23.42846 | -151.75143 | 38141 ft | 444 kts | 246° |
| 2026-04-23 20:25 | 23.39939 | -151.81077 | 38141 ft | 444 kts | 246° |
| 2026-04-23 20:26 | 23.37029 | -151.87009 | 38140 ft | 444 kts | 246° |
| 2026-04-23 20:26 | 23.34114 | -151.92943 | 38136 ft | 444 kts | 246° |
| 2026-04-23 20:27 | 23.31200 | -151.98870 | 38138 ft | 444 kts | 246° |
| 2026-04-23 20:27 | 23.28285 | -152.04790 | 38138 ft | 445 kts | 246° |
| 2026-04-23 20:28 | 23.25379 | -152.10686 | 38140 ft | 445 kts | 246° |
| 2026-04-23 20:28 | 23.22452 | -152.16619 | 38137 ft | 445 kts | 246° |
| 2026-04-23 20:29 | 23.19518 | -152.22556 | 38142 ft | 446 kts | 246° |
| 2026-04-23 20:29 | 23.16582 | -152.28492 | 38148 ft | 446 kts | 246° |
| 2026-04-23 20:30 | 23.13639 | -152.34435 | 38142 ft | 447 kts | 246° |
| 2026-04-23 20:30 | 23.09214 | -152.43356 | 38151 ft | 447 kts | 246° |
| 2026-04-23 20:31 | 23.06273 | -152.49276 | 38146 ft | 448 kts | 246° |
| 2026-04-23 20:31 | 23.03316 | -152.55221 | 38151 ft | 448 kts | 246° |
| 2026-04-23 20:32 | 23.00346 | -152.61186 | 38143 ft | 448 kts | 246° |
| 2026-04-23 20:32 | 22.97379 | -152.67137 | 38138 ft | 448 kts | 246° |
| 2026-04-23 20:33 | 22.94425 | -152.73056 | 38149 ft | 449 kts | 246° |
| 2026-04-23 20:33 | 22.91432 | -152.79046 | 38153 ft | 449 kts | 246° |
| 2026-04-23 20:34 | 22.88466 | -152.84973 | 38145 ft | 449 kts | 246° |
| 2026-04-23 20:34 | 22.85485 | -152.90925 | 38143 ft | 450 kts | 246° |
| 2026-04-23 20:35 | 22.82494 | -152.96889 | 38147 ft | 450 kts | 246° |
| 2026-04-23 20:35 | 22.79501 | -153.02852 | 38149 ft | 451 kts | 246° |
| 2026-04-23 20:36 | 22.76499 | -153.08824 | 38144 ft | 451 kts | 246° |
| 2026-04-23 20:36 | 22.73496 | -153.14790 | 38136 ft | 451 kts | 246° |
| 2026-04-23 20:37 | 22.70487 | -153.20762 | 38146 ft | 452 kts | 246° |
| 2026-04-23 20:37 | 22.67475 | -153.26734 | 38153 ft | 452 kts | 246° |
| 2026-04-23 20:38 | 22.64455 | -153.32713 | 38146 ft | 452 kts | 246° |
| 2026-04-23 20:38 | 22.61435 | -153.38687 | 38145 ft | 453 kts | 246° |
| 2026-04-23 20:39 | 22.58424 | -153.44634 | 38145 ft | 453 kts | 246° |
| 2026-04-23 20:39 | 22.55397 | -153.50608 | 38146 ft | 453 kts | 245° |
| 2026-04-23 20:40 | 22.52364 | -153.56585 | 38145 ft | 454 kts | 245° |
| 2026-04-23 20:40 | 22.49318 | -153.62582 | 38147 ft | 454 kts | 245° |
| 2026-04-23 20:41 | 22.46271 | -153.68572 | 38149 ft | 454 kts | 245° |
| 2026-04-23 20:41 | 22.43249 | -153.74509 | 38145 ft | 454 kts | 245° |
| 2026-04-23 20:42 | 22.40173 | -153.80546 | 38146 ft | 455 kts | 245° |
| 2026-04-23 20:42 | 22.37128 | -153.86533 | 38143 ft | 454 kts | 247° |
| 2026-04-23 20:43 | 22.35984 | -153.89676 | 38128 ft | 446 kts | 262° |
| 2026-04-23 20:43 | 22.35624 | -153.92964 | 38182 ft | 438 kts | 268° |
| 2026-04-23 20:43 | 22.34960 | -153.99553 | 38153 ft | 443 kts | 265° |
| 2026-04-23 20:44 | 22.34141 | -154.06179 | 38151 ft | 446 kts | 265° |
| 2026-04-23 20:44 | 22.33305 | -154.12800 | 38148 ft | 449 kts | 265° |
| 2026-04-23 20:45 | 22.32467 | -154.19491 | 38148 ft | 450 kts | 265° |
| 2026-04-23 20:45 | 22.31630 | -154.26201 | 38144 ft | 450 kts | 265° |
| 2026-04-23 20:46 | 22.30795 | -154.32894 | 38149 ft | 450 kts | 265° |
| 2026-04-23 20:46 | 22.29959 | -154.39575 | 38149 ft | 449 kts | 265° |
| 2026-04-23 20:47 | 22.29121 | -154.46244 | 38146 ft | 448 kts | 265° |
| 2026-04-23 20:47 | 22.28281 | -154.52907 | 38146 ft | 447 kts | 265° |
| 2026-04-23 20:48 | 22.27440 | -154.59556 | 38140 ft | 447 kts | 265° |
| 2026-04-23 20:48 | 22.26597 | -154.66201 | 38140 ft | 447 kts | 265° |
| 2026-04-23 20:49 | 22.25749 | -154.72856 | 38152 ft | 447 kts | 265° |
| 2026-04-23 20:49 | 22.24905 | -154.79466 | 38150 ft | 447 kts | 265° |
| 2026-04-23 20:50 | 22.24051 | -154.86124 | 38146 ft | 448 kts | 265° |
| 2026-04-23 20:50 | 22.23193 | -154.92797 | 38150 ft | 449 kts | 264° |
| 2026-04-23 20:51 | 22.22330 | -154.99484 | 38155 ft | 449 kts | 264° |
| 2026-04-23 20:51 | 22.21467 | -155.06151 | 38153 ft | 450 kts | 264° |
| 2026-04-23 20:52 | 22.20603 | -155.12804 | 38152 ft | 450 kts | 264° |
| 2026-04-23 20:52 | 22.19727 | -155.19529 | 38154 ft | 450 kts | 264° |
| 2026-04-23 20:53 | 22.18851 | -155.26230 | 38154 ft | 451 kts | 264° |
| 2026-04-23 20:53 | 22.17977 | -155.32889 | 38149 ft | 451 kts | 264° |
| 2026-04-23 20:54 | 22.17096 | -155.39585 | 38150 ft | 451 kts | 264° |
| 2026-04-23 20:54 | 22.16212 | -155.46282 | 38149 ft | 451 kts | 264° |
| 2026-04-23 20:55 | 22.15324 | -155.52990 | 38151 ft | 451 kts | 264° |
| 2026-04-23 20:55 | 22.14434 | -155.59691 | 38152 ft | 451 kts | 264° |
| 2026-04-23 20:56 | 22.13540 | -155.66393 | 38153 ft | 452 kts | 264° |
| 2026-04-23 20:56 | 22.12642 | -155.73115 | 38153 ft | 452 kts | 264° |
| 2026-04-23 20:57 | 22.11743 | -155.79815 | 38154 ft | 452 kts | 264° |
| 2026-04-23 20:57 | 22.10840 | -155.86526 | 38156 ft | 452 kts | 264° |
| 2026-04-23 20:58 | 22.09938 | -155.93207 | 38155 ft | 452 kts | 264° |
| 2026-04-23 20:58 | 22.09029 | -155.99920 | 38150 ft | 453 kts | 264° |
| 2026-04-23 20:59 | 22.08267 | -156.05534 | 38155 ft | 453 kts | 264° |
| 2026-04-23 20:59 | 22.07350 | -156.12267 | 38152 ft | 453 kts | 264° |
| 2026-04-23 21:00 | 22.06438 | -156.18948 | 38151 ft | 453 kts | 264° |
| 2026-04-23 21:00 | 22.05515 | -156.25686 | 38150 ft | 454 kts | 264° |
| 2026-04-23 21:01 | 22.04592 | -156.32407 | 38153 ft | 454 kts | 264° |
| 2026-04-23 21:01 | 22.03660 | -156.39159 | 38153 ft | 454 kts | 264° |
| 2026-04-23 21:02 | 22.02728 | -156.45891 | 38152 ft | 454 kts | 264° |
| 2026-04-23 21:02 | 22.01793 | -156.52619 | 38146 ft | 455 kts | 264° |
| 2026-04-23 21:03 | 22.00853 | -156.59370 | 38147 ft | 455 kts | 264° |
| 2026-04-23 21:03 | 21.99915 | -156.66092 | 38158 ft | 455 kts | 264° |
| 2026-04-23 21:04 | 21.98975 | -156.72804 | 38156 ft | 455 kts | 264° |
| 2026-04-23 21:04 | 21.98027 | -156.79547 | 38152 ft | 455 kts | 264° |
| 2026-04-23 21:05 | 21.97078 | -156.86281 | 38155 ft | 455 kts | 264° |
| 2026-04-23 21:05 | 21.96126 | -156.93020 | 38043 ft | 452 kts | 264° |
| 2026-04-23 21:06 | 21.95650 | -156.96373 | 37681 ft | 453 kts | 264° |
| 2026-04-23 21:06 | 21.95175 | -156.99728 | 37224 ft | 455 kts | 264° |
| 2026-04-23 21:06 | 21.94695 | -157.03108 | 36742 ft | 458 kts | 264° |
| 2026-04-23 21:06 | 21.94217 | -157.06476 | 36279 ft | 460 kts | 264° |
| 2026-04-23 21:07 | 21.93726 | -157.09924 | 35832 ft | 462 kts | 264° |
| 2026-04-23 21:07 | 21.93235 | -157.13358 | 35399 ft | 463 kts | 264° |
| 2026-04-23 21:07 | 21.92744 | -157.16799 | 34486 ft | 468 kts | 264° |
| 2026-04-23 21:07 | 21.92247 | -157.20268 | 33498 ft | 470 kts | 263° |
| 2026-04-23 21:08 | 21.91745 | -157.23772 | 32443 ft | 473 kts | 263° |
| 2026-04-23 21:08 | 21.91249 | -157.27228 | 31418 ft | 476 kts | 263° |
| 2026-04-23 21:08 | 21.90742 | -157.30752 | 30548 ft | 476 kts | 263° |
| 2026-04-23 21:08 | 21.90235 | -157.34261 | 29680 ft | 474 kts | 263° |
| 2026-04-23 21:09 | 21.89730 | -157.37761 | 28845 ft | 471 kts | 263° |
| 2026-04-23 21:09 | 21.89229 | -157.41223 | 28065 ft | 467 kts | 263° |
| 2026-04-23 21:09 | 21.88727 | -157.44686 | 27309 ft | 464 kts | 263° |
| 2026-04-23 21:09 | 21.88233 | -157.48096 | 26566 ft | 461 kts | 263° |
| 2026-04-23 21:10 | 21.87739 | -157.51500 | 25836 ft | 459 kts | 262° |
| 2026-04-23 21:10 | 21.87248 | -157.54878 | 25129 ft | 456 kts | 262° |
| 2026-04-23 21:10 | 21.86758 | -157.58244 | 24388 ft | 455 kts | 262° |
| 2026-04-23 21:10 | 21.86266 | -157.61624 | 23642 ft | 454 kts | 262° |
| 2026-04-23 21:11 | 21.85777 | -157.64974 | 22803 ft | 453 kts | 262° |
| 2026-04-23 21:11 | 21.85289 | -157.68312 | 22044 ft | 445 kts | 262° |
| 2026-04-23 21:11 | 21.84816 | -157.71528 | 21322 ft | 426 kts | 263° |
| 2026-04-23 21:11 | 21.84363 | -157.74606 | 20661 ft | 409 kts | 263° |
| 2026-04-23 21:12 | 21.83926 | -157.77578 | 20017 ft | 395 kts | 263° |
| 2026-04-23 21:12 | 21.83504 | -157.80450 | 19406 ft | 381 kts | 263° |
| 2026-04-23 21:12 | 21.83097 | -157.83214 | 18812 ft | 368 kts | 263° |
| 2026-04-23 21:12 | 21.82695 | -157.85963 | 18224 ft | 382 kts | 263° |
| 2026-04-23 21:13 | 21.82268 | -157.88885 | 17497 ft | 405 kts | 263° |
| 2026-04-23 21:13 | 21.81822 | -157.91913 | 16714 ft | 414 kts | 263° |
| 2026-04-23 21:13 | 21.81375 | -157.94918 | 15963 ft | 396 kts | 263° |
| 2026-04-23 21:13 | 21.80951 | -157.97762 | 15350 ft | 377 kts | 263° |
| 2026-04-23 21:14 | 21.80443 | -158.00465 | 14723 ft | 364 kts | 253° |
| 2026-04-23 21:14 | 21.79345 | -158.02947 | 14209 ft | 370 kts | 242° |
| 2026-04-23 21:14 | 21.78051 | -158.05375 | 13549 ft | 379 kts | 243° |
| 2026-04-23 21:14 | 21.76771 | -158.07883 | 12915 ft | 386 kts | 243° |
| 2026-04-23 21:15 | 21.75511 | -158.10414 | 12279 ft | 388 kts | 244° |
| 2026-04-23 21:15 | 21.74237 | -158.13007 | 11637 ft | 383 kts | 244° |
| 2026-04-23 21:15 | 21.73041 | -158.15448 | 11027 ft | 356 kts | 244° |
| 2026-04-23 21:15 | 21.71933 | -158.17714 | 10894 ft | 326 kts | 244° |
| 2026-04-23 21:16 | 21.70924 | -158.19778 | 10713 ft | 298 kts | 244° |
| 2026-04-23 21:16 | 21.70008 | -158.21652 | 10604 ft | 279 kts | 244° |
| 2026-04-23 21:16 | 21.69121 | -158.23471 | 10484 ft | 272 kts | 244° |
| 2026-04-23 21:16 | 21.68238 | -158.25277 | 10385 ft | 270 kts | 243° |
| 2026-04-23 21:17 | 21.67359 | -158.27074 | 10291 ft | 280 kts | 243° |
| 2026-04-23 21:17 | 21.66306 | -158.28879 | 10128 ft | 283 kts | 226° |
| 2026-04-23 21:17 | 21.64697 | -158.30001 | 10041 ft | 275 kts | 206° |
| 2026-04-23 21:17 | 21.62972 | -158.30934 | 9774 ft | 285 kts | 209° |
| 2026-04-23 21:18 | 21.61243 | -158.31974 | 9398 ft | 281 kts | 210° |
| 2026-04-23 21:18 | 21.59573 | -158.32988 | 9052 ft | 271 kts | 209° |
| 2026-04-23 21:18 | 21.57961 | -158.33961 | 8738 ft | 261 kts | 209° |
| 2026-04-23 21:18 | 21.56369 | -158.34919 | 8458 ft | 270 kts | 208° |
| 2026-04-23 21:19 | 21.54613 | -158.35751 | 8094 ft | 280 kts | 189° |
| 2026-04-23 21:19 | 21.52716 | -158.35551 | 7815 ft | 277 kts | 154° |
| 2026-04-23 21:19 | 21.51091 | -158.34524 | 7568 ft | 264 kts | 147° |
| 2026-04-23 21:19 | 21.49512 | -158.33524 | 7271 ft | 263 kts | 149° |
| 2026-04-23 21:20 | 21.47927 | -158.32568 | 7002 ft | 261 kts | 149° |
| 2026-04-23 21:20 | 21.46344 | -158.31617 | 6724 ft | 260 kts | 148° |
| 2026-04-23 21:20 | 21.44763 | -158.30665 | 6434 ft | 259 kts | 148° |
| 2026-04-23 21:20 | 21.43189 | -158.29718 | 6141 ft | 258 kts | 148° |
| 2026-04-23 21:21 | 21.41632 | -158.28783 | 5853 ft | 256 kts | 148° |
| 2026-04-23 21:21 | 21.40073 | -158.27846 | 5578 ft | 256 kts | 149° |
| 2026-04-23 21:21 | 21.38514 | -158.26909 | 5285 ft | 257 kts | 149° |
| 2026-04-23 21:21 | 21.36977 | -158.25986 | 5029 ft | 258 kts | 148° |
| 2026-04-23 21:22 | 21.35401 | -158.25041 | 4741 ft | 259 kts | 148° |
| 2026-04-23 21:22 | 21.34028 | -158.23861 | 4405 ft | 249 kts | 121° |
| 2026-04-23 21:22 | 21.33489 | -158.22133 | 4245 ft | 238 kts | 94° |
| 2026-04-23 21:22 | 21.33358 | -158.20439 | 4168 ft | 226 kts | 95° |
| 2026-04-23 21:23 | 21.33184 | -158.18786 | 4060 ft | 220 kts | 95° |
| 2026-04-23 21:23 | 21.33019 | -158.17184 | 3944 ft | 212 kts | 95° |
| 2026-04-23 21:23 | 21.32866 | -158.15639 | 3804 ft | 206 kts | 94° |
| 2026-04-23 21:23 | 21.32717 | -158.14101 | 3541 ft | 205 kts | 94° |
| 2026-04-23 21:24 | 21.32582 | -158.12585 | 3296 ft | 203 kts | 91° |
| 2026-04-23 21:24 | 21.32532 | -158.11069 | 3043 ft | 206 kts | 90° |
| 2026-04-23 21:24 | 21.32524 | -158.09521 | 2727 ft | 206 kts | 89° |
| 2026-04-23 21:24 | 21.32521 | -158.08045 | 2533 ft | 190 kts | 88° |
| 2026-04-23 21:25 | 21.32523 | -158.06673 | 2273 ft | 177 kts | 87° |
| 2026-04-23 21:25 | 21.32524 | -158.05405 | 2035 ft | 161 kts | 85° |
| 2026-04-23 21:25 | 21.32524 | -158.04247 | 1809 ft | 150 kts | 87° |
| 2026-04-23 21:25 | 21.32521 | -158.03186 | 1631 ft | 134 kts | 84° |
| 2026-04-23 21:26 | 21.32525 | -158.02196 | 1520 ft | 137 kts | 85° |
| 2026-04-23 21:26 | 21.32524 | -158.01109 | 1284 ft | 148 kts | 85° |
| 2026-04-23 21:26 | 21.32527 | -158.00027 | 1011 ft | 143 kts | 85° |
| 2026-04-23 21:26 | 21.32519 | -157.98962 | 808 ft | 145 kts | 89° |
| 2026-04-23 21:27 | 21.32484 | -157.97918 | 734 ft | 138 kts | 89° |
| 2026-04-23 21:27 | 21.32503 | -157.96912 | 581 ft | 134 kts | 85° |
| 2026-04-23 21:27 | 21.32530 | -157.95862 | 368 ft | 132 kts | 90° |
| 2026-04-23 21:27 | 21.32516 | -157.94904 | 199 ft | 134 kts | 88° |
| 2026-04-23 21:28 | 21.32524 | -157.93941 | 83 ft | 125 kts | 88° |
| 2026-04-23 21:28 | 21.32528 | -157.93058 | 25 ft | 109 kts | 89° |
| 2026-04-23 21:28 | 21.32529 | -157.92414 | 28 ft | 59 kts | 89° |
| 2026-04-23 21:28 | 21.32596 | -157.92192 | 28 ft | 20 kts | 57° |
| 2026-04-23 21:29 | 21.32667 | -157.92065 | 27 ft | 16 kts | 61° |
| 2026-04-23 21:29 | 21.32722 | -157.91960 | 25 ft | 16 kts | 59° |
| 2026-04-23 21:29 | 21.32770 | -157.91855 | 22 ft | 11 kts | 77° |
| 2026-04-23 21:29 | 21.32807 | -157.91783 | 25 ft | 11 kts | 45° |
| 2026-04-23 21:30 | 21.32866 | -157.91729 | 27 ft | 11 kts | 38° |
| 2026-04-23 21:30 | 21.32884 | -157.91714 | 27 ft | 0 kts | 39° |